Baltic Frost — 9HA2868 — position and weather

sailwx.info

Track history (hours):
 
Tides and Currents Weather Stations Pressure Air Temp Water Temp Dewpoint Dewpoint Depression Visibility Wind Speed Wind Dir Waves Ship Positions

Baltic Frost

Last reported at 2016-May-05 23:33 UTC. Time now 2016-May-05 23:50 UTC.
Position N 57°41' E 011°52'.

Length 182 m; draft 7 m.

Type: Ship. MMSI: 256495000.

Date/timePositionNaut miles runAvg speedWind from/ knotsBaromVisibWave heightAir tempDewpointWater temp
2016-May-05 23:33N 57°41' E 011°52'0 0.0
2016-May-05 22:33N 57°41' E 011°52'0 0.0
2016-May-05 21:33N 57°41' E 011°52'0 0.1
2016-May-05 20:33N 57°41' E 011°52'7 6.9
2016-May-05 19:33N 57°38' E 011°41'3 2.7
2016-May-05 18:33N 57°35' E 011°41'0 0.0
2016-May-05 17:33N 57°35' E 011°41'0 0.0
2016-May-05 16:32N 57°35' E 011°41'0 0.0
2016-May-05 15:32N 57°35' E 011°41'0 0.1
2016-May-05 14:32N 57°35' E 011°41'0 0.1
2016-May-05 13:31N 57°35' E 011°41'0 0.0
2016-May-05 12:28N 57°35' E 011°41'0 0.0
2016-May-05 11:33N 57°35' E 011°41'0 0.1
2016-May-05 10:33N 57°35' E 011°41'0 0.0
2016-May-05 09:32N 57°35' E 011°41'0 0.0
2016-May-05 08:32N 57°35' E 011°41'0 0.0
2016-May-05 07:32N 57°35' E 011°41'0 0.1
2016-May-05 06:31N 57°35' E 011°41'0 0.1
2016-May-05 05:31N 57°35' E 011°41'0 0.0
2016-May-05 04:33N 57°35' E 011°41'0 0.0
2016-May-05 03:33N 57°35' E 011°41'0 0.0
2016-May-05 02:32N 57°35' E 011°41'0 0.1
2016-May-05 01:32N 57°35' E 011°41'0 0.1
2016-May-05 00:32N 57°35' E 011°41'0 0.1
2016-May-04 23:31N 57°35' E 011°40'0 0.0
2016-May-04 22:31N 57°35' E 011°40'0 0.0
2016-May-04 21:33N 57°35' E 011°40'0 0.0
2016-May-04 20:33N 57°35' E 011°40'0 0.0
2016-May-04 19:32N 57°35' E 011°41'0 0.0
2016-May-04 18:32N 57°35' E 011°41'0 0.0
2016-May-04 17:32N 57°35' E 011°41'0 0.0
2016-May-04 16:31N 57°35' E 011°41'0 0.1
2016-May-04 15:31N 57°35' E 011°41'0 0.0
2016-May-04 14:33N 57°35' E 011°41'0 0.0
2016-May-04 13:33N 57°35' E 011°41'0 0.0
2016-May-04 12:32N 57°35' E 011°41'0 0.0
2016-May-04 11:32N 57°35' E 011°41'0 0.0
2016-May-04 10:31N 57°35' E 011°41'0 0.1
2016-May-04 09:28N 57°35' E 011°41'0 0.0
2016-May-04 08:31N 57°35' E 011°41'0 0.1
2016-May-04 07:33N 57°35' E 011°41'0 0.0
2016-May-04 06:33N 57°35' E 011°41'0 0.0
2016-May-04 05:32N 57°35' E 011°41'0 0.0
2016-May-04 04:32N 57°35' E 011°41'0 0.0
2016-May-04 03:31N 57°35' E 011°41'0 0.0
2016-May-04 02:31N 57°35' E 011°41'0 0.0
2016-May-04 01:28N 57°35' E 011°41'0 0.0
2016-May-04 00:33N 57°35' E 011°41'0 0.0
2016-May-03 23:33N 57°35' E 011°41'0 0.0
2016-May-03 22:32N 57°35' E 011°41'0 0.0
2016-May-03 21:32N 57°35' E 011°41'0 0.0
2016-May-03 20:31N 57°35' E 011°41'0 0.0
2016-May-03 19:31N 57°35' E 011°41'0 0.1
2016-May-03 18:31N 57°35' E 011°41'0 0.1
2016-May-03 17:33N 57°35' E 011°41'5 5.1
2016-May-03 16:33N 57°32' E 011°34'8 8.1
2016-May-03 15:33N 57°23' E 011°32'9 9.5
2016-May-03 14:33N 57°14' E 011°36'1010.1
2016-May-03 13:33N 57°05' E 011°42'8 7.8
2016-May-03 12:33N 56°57' E 011°47'9 8.6
2016-May-03 11:33N 56°49' E 011°52'9 8.7
2016-May-03 10:33N 56°41' E 011°56'9 8.7
2016-May-03 09:33N 56°32' E 011°59'9 8.9
2016-May-03 08:33N 56°23' E 012°03'8 7.8
2016-May-03 07:33N 56°16' E 012°09'9 9.0
2016-May-03 06:33N 56°11' E 012°22'1111.4
2016-May-03 05:34N 56°04' E 012°38'1313.4
2016-May-03 04:34N 55°51' E 012°42'1413.6
2016-May-03 03:34N 55°37' E 012°42'8 8.0
2016-May-03 02:33N 55°29' E 012°43'5 5.3
2016-May-03 01:33N 55°24' E 012°42'7 7.3
2016-May-03 00:33N 55°17' E 012°47'1211.9
2016-May-02 23:33N 55°15' E 013°07'1212.1
2016-May-02 22:33N 55°14' E 013°29'1212.2
2016-May-02 21:33N 55°13' E 013°50'1212.2
2016-May-02 20:33N 55°12' E 014°11'1111.1
2016-May-02 19:33N 55°20' E 014°26'1211.5
2016-May-02 18:33N 55°28' E 014°40'1211.7
2016-May-02 17:33N 55°34' E 014°58'1211.5
2016-May-02 16:33N 55°40' E 015°15'1211.7
2016-May-02 15:33N 55°46' E 015°33'1110.4
2016-May-02 14:29N 55°51' E 015°51'8 8.3
2016-May-02 13:33N 55°55' E 016°02'10 8.7
2016-May-02 12:23N 56°00' E 016°18'14310.1
2016-May-01 22:14N 58°17' E 017°36'811.8
2016-May-01 21:31N 58°26' E 017°36'1111.1
2016-May-01 20:33N 58°36' E 017°30'1111.5
2016-May-01 19:33N 58°39' E 017°08'1 1.2
2016-May-01 18:33N 58°40' E 017°07'0 0.0
2016-May-01 17:33N 58°40' E 017°07'0 0.0
2016-May-01 12:25N 58°40' E 017°07'0 0.0
2016-May-01 06:17N 58°40' E 017°07'0 0.0
2016-May-01 05:33N 58°40' E 017°07'0 0.0
2016-May-01 04:14N 58°40' E 017°07'0 0.0
2016-May-01 02:06N 58°40' E 017°07'0 0.0
2016-May-01 01:33N 58°40' E 017°07'0 0.0
2016-May-01 00:33N 58°40' E 017°07'0 0.0
2016-Apr-30 23:30N 58°40' E 017°07'5 5.3
2016-Apr-30 22:33N 58°37' E 017°15'9 3.9
2016-Apr-30 20:20N 58°34' E 017°31'0 0.0
2016-Apr-30 19:32N 58°34' E 017°31'173 9.1
2016-Apr-30 00:33N 55°48' E 015°59'1212.5
2016-Apr-29 23:33N 55°42' E 015°40'1212.4
2016-Apr-29 22:33N 55°36' E 015°20'1212.3
2016-Apr-29 21:33N 55°31' E 015°01'1212.4
2016-Apr-29 20:34N 55°25' E 014°42'1212.3
2016-Apr-29 19:34N 55°16' E 014°28'1212.3
2016-Apr-29 18:34N 55°06' E 014°15'1211.6
2016-Apr-29 17:34N 54°59' E 013°58'1212.2
2016-Apr-29 16:34N 54°55' E 013°38'1312.6
2016-Apr-29 15:33N 54°52' E 013°17'1312.6
2016-Apr-29 14:33N 54°48' E 012°56'1211.7
2016-Apr-29 13:33N 54°43' E 012°38'1511.9
2016-Apr-29 12:20N 54°34' E 012°17'810.7
2016-Apr-29 11:33N 54°26' E 012°11'1111.6
2016-Apr-29 10:34N 54°25' E 011°52'1212.2
2016-Apr-29 09:34N 54°29' E 011°32'1212.4
2016-Apr-29 08:34N 54°35' E 011°13'1212.1
2016-Apr-29 07:33N 54°38' E 010°53'1010.0
2016-Apr-29 06:34N 54°48' E 010°50'1111.2
2016-Apr-29 05:33N 54°58' E 010°57'1211.8
2016-Apr-29 04:33N 55°10' E 010°60'1110.1
2016-Apr-29 03:29N 55°21' E 011°02'8710.8
2016-Apr-28 19:27N 56°44' E 011°48'910.7
2016-Apr-28 18:34N 56°53' E 011°47'1212.3
2016-Apr-28 17:33N 57°05' E 011°40'1211.8
2016-Apr-28 16:33N 57°16' E 011°32'1212.0
2016-Apr-28 15:34N 57°27' E 011°25'1212.0
2016-Apr-28 14:33N 57°35' E 011°09'1312.2
2016-Apr-28 13:30N 57°44' E 010°51'1011.0
2016-Apr-28 12:34N 57°47' E 010°33'27911.2
2016-Apr-27 11:32N 54°18' E 005°02'1211.9
2016-Apr-27 10:31N 54°08' E 004°49'18710.4
2016-Apr-26 16:32N 51°27' E 002°12'1212.9
2016-Apr-26 15:33N 51°15' E 002°06'1413.6
2016-Apr-26 14:33N 51°07' E 001°48'1414.3
2016-Apr-26 13:33N 50°58' E 001°32'6112.1
2016-Apr-26 08:33N 50°21' E 000°15'1212.1
2016-Apr-26 07:33N 50°18' W 000°03'1211.3
2016-Apr-26 06:31N 50°15' W 000°21'  
Track history (hours):
 
Tides and Currents Weather Stations Pressure Air Temp Water Temp Dewpoint Dewpoint Depression Visibility Wind Speed Wind Dir Waves Ship Positions

Baltic Frost

Last reported at 2016-May-05 23:33 UTC. Time now 2016-May-05 23:50 UTC.
Position N 57°41' E 011°52'.

Length 182 m; draft 7 m.

Type: Ship. MMSI: 256495000.

Date/timePositionNaut miles runAvg speedWind from/ knotsBaromVisibWave heightAir tempDewpointWater temp
2016-May-05 23:33N 57°41' E 011°52'0 0.0
2016-May-05 22:33N 57°41' E 011°52'0 0.0
2016-May-05 21:33N 57°41' E 011°52'0 0.1
2016-May-05 20:33N 57°41' E 011°52'7 6.9
2016-May-05 19:33N 57°38' E 011°41'3 2.7
2016-May-05 18:33N 57°35' E 011°41'0 0.0
2016-May-05 17:33N 57°35' E 011°41'0 0.0
2016-May-05 16:32N 57°35' E 011°41'0 0.0
2016-May-05 15:32N 57°35' E 011°41'0 0.1
2016-May-05 14:32N 57°35' E 011°41'0 0.1
2016-May-05 13:31N 57°35' E 011°41'0 0.0
2016-May-05 12:28N 57°35' E 011°41'0 0.0
2016-May-05 11:33N 57°35' E 011°41'0 0.1
2016-May-05 10:33N 57°35' E 011°41'0 0.0
2016-May-05 09:32N 57°35' E 011°41'0 0.0
2016-May-05 08:32N 57°35' E 011°41'0 0.0
2016-May-05 07:32N 57°35' E 011°41'0 0.1
2016-May-05 06:31N 57°35' E 011°41'0 0.1
2016-May-05 05:31N 57°35' E 011°41'0 0.0
2016-May-05 04:33N 57°35' E 011°41'0 0.0
2016-May-05 03:33N 57°35' E 011°41'0 0.0
2016-May-05 02:32N 57°35' E 011°41'0 0.1
2016-May-05 01:32N 57°35' E 011°41'0 0.1
2016-May-05 00:32N 57°35' E 011°41'0 0.1
2016-May-04 23:31N 57°35' E 011°40'0 0.0
2016-May-04 22:31N 57°35' E 011°40'0 0.0
2016-May-04 21:33N 57°35' E 011°40'0 0.0
2016-May-04 20:33N 57°35' E 011°40'0 0.0
2016-May-04 19:32N 57°35' E 011°41'0 0.0
2016-May-04 18:32N 57°35' E 011°41'0 0.0
2016-May-04 17:32N 57°35' E 011°41'0 0.0
2016-May-04 16:31N 57°35' E 011°41'0 0.1
2016-May-04 15:31N 57°35' E 011°41'0 0.0
2016-May-04 14:33N 57°35' E 011°41'0 0.0
2016-May-04 13:33N 57°35' E 011°41'0 0.0
2016-May-04 12:32N 57°35' E 011°41'0 0.0
2016-May-04 11:32N 57°35' E 011°41'0 0.0
2016-May-04 10:31N 57°35' E 011°41'0 0.1
2016-May-04 09:28N 57°35' E 011°41'0 0.0
2016-May-04 08:31N 57°35' E 011°41'0 0.1
2016-May-04 07:33N 57°35' E 011°41'0 0.0
2016-May-04 06:33N 57°35' E 011°41'0 0.0
2016-May-04 05:32N 57°35' E 011°41'0 0.0
2016-May-04 04:32N 57°35' E 011°41'0 0.0
2016-May-04 03:31N 57°35' E 011°41'0 0.0
2016-May-04 02:31N 57°35' E 011°41'0 0.0
2016-May-04 01:28N 57°35' E 011°41'0 0.0
2016-May-04 00:33N 57°35' E 011°41'0 0.0
2016-May-03 23:33N 57°35' E 011°41'0 0.0
2016-May-03 22:32N 57°35' E 011°41'0 0.0
2016-May-03 21:32N 57°35' E 011°41'0 0.0
2016-May-03 20:31N 57°35' E 011°41'0 0.0
2016-May-03 19:31N 57°35' E 011°41'0 0.1
2016-May-03 18:31N 57°35' E 011°41'0 0.1
2016-May-03 17:33N 57°35' E 011°41'5 5.1
2016-May-03 16:33N 57°32' E 011°34'8 8.1
2016-May-03 15:33N 57°23' E 011°32'9 9.5
2016-May-03 14:33N 57°14' E 011°36'1010.1
2016-May-03 13:33N 57°05' E 011°42'8 7.8
2016-May-03 12:33N 56°57' E 011°47'9 8.6
2016-May-03 11:33N 56°49' E 011°52'9 8.7
2016-May-03 10:33N 56°41' E 011°56'9 8.7
2016-May-03 09:33N 56°32' E 011°59'9 8.9
2016-May-03 08:33N 56°23' E 012°03'8 7.8
2016-May-03 07:33N 56°16' E 012°09'9 9.0
2016-May-03 06:33N 56°11' E 012°22'1111.4
2016-May-03 05:34N 56°04' E 012°38'1313.4
2016-May-03 04:34N 55°51' E 012°42'1413.6
2016-May-03 03:34N 55°37' E 012°42'8 8.0
2016-May-03 02:33N 55°29' E 012°43'5 5.3
2016-May-03 01:33N 55°24' E 012°42'7 7.3
2016-May-03 00:33N 55°17' E 012°47'1211.9
2016-May-02 23:33N 55°15' E 013°07'1212.1
2016-May-02 22:33N 55°14' E 013°29'1212.2
2016-May-02 21:33N 55°13' E 013°50'1212.2
2016-May-02 20:33N 55°12' E 014°11'1111.1
2016-May-02 19:33N 55°20' E 014°26'1211.5
2016-May-02 18:33N 55°28' E 014°40'1211.7
2016-May-02 17:33N 55°34' E 014°58'1211.5
2016-May-02 16:33N 55°40' E 015°15'1211.7
2016-May-02 15:33N 55°46' E 015°33'1110.4
2016-May-02 14:29N 55°51' E 015°51'8 8.3
2016-May-02 13:33N 55°55' E 016°02'10 8.7
2016-May-02 12:23N 56°00' E 016°18'14310.1
2016-May-01 22:14N 58°17' E 017°36'811.8
2016-May-01 21:31N 58°26' E 017°36'1111.1
2016-May-01 20:33N 58°36' E 017°30'1111.5
2016-May-01 19:33N 58°39' E 017°08'1 1.2
2016-May-01 18:33N 58°40' E 017°07'0 0.0
2016-May-01 17:33N 58°40' E 017°07'0 0.0
2016-May-01 12:25N 58°40' E 017°07'0 0.0
2016-May-01 06:17N 58°40' E 017°07'0 0.0
2016-May-01 05:33N 58°40' E 017°07'0 0.0
2016-May-01 04:14N 58°40' E 017°07'0 0.0
2016-May-01 02:06N 58°40' E 017°07'0 0.0
2016-May-01 01:33N 58°40' E 017°07'0 0.0
2016-May-01 00:33N 58°40' E 017°07'0 0.0
2016-Apr-30 23:30N 58°40' E 017°07'5 5.3
2016-Apr-30 22:33N 58°37' E 017°15'9 3.9
2016-Apr-30 20:20N 58°34' E 017°31'0 0.0
2016-Apr-30 19:32N 58°34' E 017°31'173 9.1
2016-Apr-30 00:33N 55°48' E 015°59'1212.5
2016-Apr-29 23:33N 55°42' E 015°40'1212.4
2016-Apr-29 22:33N 55°36' E 015°20'1212.3
2016-Apr-29 21:33N 55°31' E 015°01'1212.4
2016-Apr-29 20:34N 55°25' E 014°42'1212.3
2016-Apr-29 19:34N 55°16' E 014°28'1212.3
2016-Apr-29 18:34N 55°06' E 014°15'1211.6
2016-Apr-29 17:34N 54°59' E 013°58'1212.2
2016-Apr-29 16:34N 54°55' E 013°38'1312.6
2016-Apr-29 15:33N 54°52' E 013°17'1312.6
2016-Apr-29 14:33N 54°48' E 012°56'1211.7
2016-Apr-29 13:33N 54°43' E 012°38'1511.9
2016-Apr-29 12:20N 54°34' E 012°17'810.7
2016-Apr-29 11:33N 54°26' E 012°11'1111.6
2016-Apr-29 10:34N 54°25' E 011°52'1212.2
2016-Apr-29 09:34N 54°29' E 011°32'1212.4
2016-Apr-29 08:34N 54°35' E 011°13'1212.1
2016-Apr-29 07:33N 54°38' E 010°53'1010.0
2016-Apr-29 06:34N 54°48' E 010°50'1111.2
2016-Apr-29 05:33N 54°58' E 010°57'1211.8
2016-Apr-29 04:33N 55°10' E 010°60'1110.1
2016-Apr-29 03:29N 55°21' E 011°02'8710.8
2016-Apr-28 19:27N 56°44' E 011°48'910.7
2016-Apr-28 18:34N 56°53' E 011°47'1212.3
2016-Apr-28 17:33N 57°05' E 011°40'1211.8
2016-Apr-28 16:33N 57°16' E 011°32'1212.0
2016-Apr-28 15:34N 57°27' E 011°25'1212.0
2016-Apr-28 14:33N 57°35' E 011°09'1312.2
2016-Apr-28 13:30N 57°44' E 010°51'1011.0
2016-Apr-28 12:34N 57°47' E 010°33'27911.2
2016-Apr-27 11:32N 54°18' E 005°02'1211.9
2016-Apr-27 10:31N 54°08' E 004°49'18710.4
2016-Apr-26 16:32N 51°27' E 002°12'1212.9
2016-Apr-26 15:33N 51°15' E 002°06'1413.6
2016-Apr-26 14:33N 51°07' E 001°48'1414.3
2016-Apr-26 13:33N 50°58' E 001°32'6112.1
2016-Apr-26 08:33N 50°21' E 000°15'1212.1
2016-Apr-26 07:33N 50°18' W 000°03'1211.3
2016-Apr-26 06:31N 50°15' W 000°21'  

Dump ship's entire track history